Time;durP1;ratioP1;P1;durP2;ratioP2;P2;SDS_P1;SDS_P2;PMS_P1;PMS_P2;Temp;Humidity;BMP_temperature;BMP_pressure;BME280_temperature;BME280_humidity;BME280_pressure;Samples;Min_cycle;Max_cycle;Signal;HPM_P1;HPM_P2
2022/01/23 00:00:28;;;;;;;15.85;4.70;;;5.60;99.90;;;;;;5034965;28;20125;-66
2022/01/23 00:03:00;;;;;;;;;;;5.60;99.90;;;;;;5040307;28;20041;-66
2022/01/23 00:05:33;;;;;;;12.40;4.68;;;5.60;99.90;;;;;;5038998;28;20153;-66
2022/01/23 00:07:59;;;;;;;10.45;4.18;;;5.60;99.90;;;;;;5053669;28;20370;-66
2022/01/23 00:10:24;;;;;;;11.00;4.30;;;5.60;99.90;;;;;;5038748;28;20099;-66
2022/01/23 00:12:55;;;;;;;13.20;4.32;;;5.60;99.90;;;;;;5039637;28;20033;-66
2022/01/23 00:18:06;;;;;;;9.77;4.18;;;5.60;99.90;;;;;;5038658;28;20408;-66
2022/01/23 00:20:31;;;;;;;16.30;4.95;;;5.60;99.90;;;;;;5039250;28;20032;-66
2022/01/23 00:23:01;;;;;;;11.27;4.28;;;5.60;99.90;;;;;;5037683;28;20037;-66
2022/01/23 00:30:58;;;;;;;14.48;4.60;;;5.60;99.90;;;;;;5038038;28;20447;-65
2022/01/23 00:33:25;;;;;;;16.63;9.57;;;5.60;99.90;;;;;;5036511;28;20052;-66
2022/01/23 00:35:51;;;;;;;9.40;5.05;;;5.60;99.90;;;;;;5041134;28;20037;-66
2022/01/23 00:38:17;;;;;;;12.77;4.57;;;5.60;99.90;;;;;;5033051;28;20191;-65
2022/01/23 00:40:46;;;;;;;10.45;4.72;;;5.60;99.90;;;;;;5037687;28;20052;-65
2022/01/23 00:43:30;;;;;;;9.50;4.43;;;5.60;99.90;;;;;;5039434;28;20508;-66
2022/01/23 00:46:09;;;;;;;10.15;4.53;;;5.60;99.90;;;;;;5037990;28;20094;-65
2022/01/23 00:48:38;;;;;;;12.40;4.65;;;5.60;99.90;;;;;;5036676;28;20037;-66
2022/01/23 00:51:04;;;;;;;12.73;5.00;;;5.60;99.90;;;;;;5035663;28;20505;-66
2022/01/23 00:53:30;;;;;;;9.90;4.97;;;5.60;99.90;;;;;;5038571;28;20041;-66
2022/01/23 00:55:55;;;;;;;15.10;4.70;;;5.60;99.90;;;;;;5035640;28;20144;-65
2022/01/23 00:58:21;;;;;;;9.32;5.35;;;5.60;99.90;;;;;;5033978;28;20037;-65
2022/01/23 01:00:47;;;;;;;12.73;5.47;;;5.60;99.90;;;;;;5040135;28;20037;-65
2022/01/23 01:03:13;;;;;;;11.30;4.90;;;5.60;99.90;;;;;;5038400;28;20103;-66
2022/01/23 01:05:38;;;;;;;11.48;5.18;;;5.60;99.90;;;;;;5039747;28;20064;-65
2022/01/23 01:08:05;;;;;;;7.97;4.47;;;5.50;99.90;;;;;;5043113;28;20462;-65
2022/01/23 01:11:00;;;;;;;9.70;5.28;;;5.60;99.90;;;;;;5039640;28;20040;-66
2022/01/23 01:13:21;;;;;;;11.32;5.22;;;5.60;99.90;;;;;;5039383;28;20064;-66
2022/01/23 01:16:35;;;;;;;12.35;5.30;;;5.60;99.90;;;;;;5041481;28;20063;-66
2022/01/23 01:35:26;;;;;;;14.40;5.85;;;5.60;99.90;;;;;;5039153;28;20044;-65
2022/01/23 01:37:52;;;;;;;14.35;5.80;;;5.60;99.90;;;;;;5036978;28;20172;-65
2022/01/23 01:40:19;;;;;;;16.52;6.10;;;5.60;99.90;;;;;;5042505;28;20408;-65
2022/01/23 01:42:45;;;;;;;13.63;5.40;;;5.70;99.90;;;;;;5038314;28;20037;-66
2022/01/23 01:45:12;;;;;;;17.70;4.95;;;5.60;99.90;;;;;;5041001;28;20067;-66
2022/01/23 01:47:46;;;;;;;11.73;5.63;;;5.60;99.90;;;;;;5040450;28;20075;-66
2022/01/23 01:50:11;;;;;;;11.60;5.00;;;5.60;99.90;;;;;;5039680;28;20075;-65
2022/01/23 01:52:37;;;;;;;11.82;5.32;;;5.60;99.90;;;;;;5038794;28;20120;-65
2022/01/23 01:55:06;;;;;;;12.57;5.78;;;5.60;99.90;;;;;;5041099;28;20554;-65
2022/01/23 01:57:39;;;;;;;12.05;5.45;;;5.60;99.90;;;;;;5038484;28;20106;-66
2022/01/23 02:08:23;;;;;;;12.57;5.20;;;5.70;99.90;;;;;;5035560;28;20425;-66
2022/01/23 02:10:54;;;;;;;10.63;5.13;;;5.70;99.90;;;;;;5041480;28;20041;-66
2022/01/23 02:13:26;;;;;;;14.27;5.47;;;5.60;99.90;;;;;;5037697;28;20083;-66
2022/01/23 02:50:57;;;;;;;16.17;6.28;;;5.60;99.90;;;;;;5034989;28;20064;-66
2022/01/23 02:56:21;;;;;;;15.77;6.53;;;5.60;99.90;;;;;;5039002;28;20512;-66
2022/01/23 02:58:59;;;;;;;13.85;6.85;;;5.60;99.90;;;;;;5039149;28;20176;-66
2022/01/23 03:01:29;;;;;;;13.32;7.15;;;5.60;99.90;;;;;;5037665;28;20686;-66
2022/01/23 03:04:03;;;;;;;15.63;7.47;;;5.60;99.90;;;;;;5040129;28;20396;-66
2022/01/23 03:14:25;;;;;;;21.17;7.20;;;5.60;99.90;;;;;;5040014;28;19917;-65
2022/01/23 03:25:47;;;;;;;16.40;7.40;;;5.60;99.90;;;;;;5040047;28;20107;-65
2022/01/23 03:28:19;;;;;;;18.65;7.53;;;5.60;99.90;;;;;;5037897;28;20052;-65
2022/01/23 03:33:40;;;;;;;12.23;6.82;;;5.60;99.90;;;;;;5044678;28;20053;-66
2022/01/23 03:36:05;;;;;;;18.50;7.00;;;5.60;99.90;;;;;;5038850;28;20535;-66
2022/01/23 03:38:31;;;;;;;13.07;7.50;;;5.60;99.90;;;;;;5037444;28;20049;-66
2022/01/23 03:40:57;;;;;;;19.88;7.88;;;5.60;99.90;;;;;;5052736;28;20069;-66
2022/01/23 03:43:29;;;;;;;14.82;7.25;;;5.60;99.90;;;;;;5038648;28;20413;-66
2022/01/23 03:46:09;;;;;;;14.13;7.55;;;5.60;99.90;;;;;;5039154;28;20498;-66
2022/01/23 03:51:11;;;;;;;15.63;7.35;;;5.60;99.90;;;;;;5039433;28;20045;-66
2022/01/23 03:53:38;;;;;;;13.68;6.78;;;5.60;99.90;;;;;;5037051;28;20520;-66
2022/01/23 03:56:05;;;;;;;13.00;7.15;;;5.60;99.90;;;;;;5036255;28;20071;-66
2022/01/23 03:58:32;;;;;;;16.98;7.57;;;5.60;99.90;;;;;;5037012;28;20551;-66
2022/01/23 04:00:58;;;;;;;12.27;7.10;;;5.60;99.90;;;;;;5040444;28;20067;-66
2022/01/23 04:03:25;;;;;;;10.48;6.97;;;5.60;99.90;;;;;;5036306;28;20637;-66
2022/01/23 04:05:50;;;;;;;13.32;7.25;;;5.60;99.90;;;;;;5039200;28;20127;-66
2022/01/23 04:08:18;;;;;;;9.90;6.72;;;5.60;99.90;;;;;;5039481;28;20119;-66
2022/01/23 04:10:44;;;;;;;18.95;7.60;;;5.60;99.90;;;;;;5040000;28;20564;-66
2022/01/23 04:13:19;;;;;;;10.48;6.75;;;5.60;99.90;;;;;;5037512;28;20124;-66
2022/01/23 04:15:52;;;;;;;17.08;7.20;;;5.60;99.90;;;;;;5038704;28;20076;-66
2022/01/23 04:19:06;;;;;;;16.17;7.78;;;5.60;99.90;;;;;;5035865;28;20124;-66
2022/01/23 04:32:07;;;;;;;22.20;8.57;;;5.50;99.90;;;;;;5038808;28;19935;-66
2022/01/23 05:01:58;;;;;;;16.20;7.43;;;5.50;99.90;;;;;;5041189;28;20580;-66
2022/01/23 05:04:18;;;;;;;16.73;7.88;;;5.60;99.90;;;;;;5038828;28;20503;-66
2022/01/23 05:06:58;;;;;;;19.45;7.75;;;5.50;99.90;;;;;;5041721;28;20041;-66
2022/01/23 05:09:24;;;;;;;21.83;8.55;;;5.50;99.90;;;;;;5041910;28;20033;-66
2022/01/23 05:11:59;;;;;;;12.20;7.13;;;5.50;99.90;;;;;;5039633;28;20049;-66
2022/01/23 05:14:31;;;;;;;;;;;5.60;99.90;;;;;;5042115;28;20045;-66
2022/01/23 05:16:58;;;;;;;17.75;7.13;;;5.50;99.90;;;;;;5041066;28;20531;-66
2022/01/23 05:19:25;;;;;;;22.27;8.63;;;5.50;99.90;;;;;;5040180;28;20041;-66
2022/01/23 05:22:05;;;;;;;13.50;7.40;;;5.50;99.90;;;;;;5039491;28;20045;-66
2022/01/23 05:24:38;;;;;;;12.00;7.03;;;5.50;99.90;;;;;;5057771;28;20099;-66
2022/01/23 05:27:07;;;;;;;13.90;6.78;;;5.50;99.90;;;;;;5035876;28;20080;-66
2022/01/23 05:29:33;;;;;;;19.02;8.05;;;5.50;99.90;;;;;;5039502;28;20044;-66
2022/01/23 05:31:58;;;;;;;14.55;7.40;;;5.50;99.90;;;;;;5041460;28;20542;-66
2022/01/23 05:34:25;;;;;;;16.25;7.38;;;5.50;99.90;;;;;;5042148;28;20025;-66
2022/01/23 05:36:51;;;;;;;18.08;7.95;;;5.50;99.90;;;;;;5037420;28;20037;-66
2022/01/23 05:39:20;;;;;;;20.90;7.85;;;5.50;99.90;;;;;;5040105;28;20057;-66
2022/01/23 05:41:46;;;;;;;12.18;7.13;;;5.50;99.90;;;;;;5041050;28;20083;-66
2022/01/23 05:44:12;;;;;;;14.13;7.05;;;5.50;99.90;;;;;;5037901;28;20037;-66
2022/01/23 05:46:38;;;;;;;11.23;6.82;;;5.50;99.90;;;;;;5041450;28;20068;-66
2022/01/23 05:49:05;;;;;;;14.43;6.72;;;5.50;99.90;;;;;;5040879;28;20037;-66
2022/01/23 05:51:30;;;;;;;14.45;6.60;;;5.50;99.90;;;;;;5054592;28;20336;-66
2022/01/23 05:53:56;;;;;;;12.95;6.82;;;5.50;99.90;;;;;;5039096;28;20041;-66
2022/01/23 05:56:22;;;;;;;13.80;7.20;;;5.40;99.90;;;;;;5038565;28;20041;-66
2022/01/23 05:58:47;;;;;;;14.15;5.95;;;5.50;99.90;;;;;;5040548;28;20041;-66
2022/01/23 06:01:13;;;;;;;9.90;6.10;;;5.50;99.90;;;;;;5040865;28;20045;-66
2022/01/23 06:03:39;;;;;;;13.95;6.75;;;5.50;99.90;;;;;;5042274;28;20090;-66
2022/01/23 06:06:04;;;;;;;10.77;6.25;;;5.50;99.90;;;;;;5040960;28;20041;-66
2022/01/23 06:08:30;;;;;;;11.98;6.50;;;5.40;99.90;;;;;;5038305;28;20056;-66
2022/01/23 06:10:57;;;;;;;10.73;6.07;;;5.50;99.90;;;;;;5041609;28;20466;-66
2022/01/23 06:13:24;;;;;;;13.90;7.38;;;5.50;99.90;;;;;;5039352;28;20037;-66
2022/01/23 06:15:50;;;;;;;12.93;6.70;;;5.50;99.90;;;;;;5058275;28;20033;-66
2022/01/23 06:18:16;;;;;;;12.73;6.68;;;5.50;99.90;;;;;;5037548;28;20041;-66
2022/01/23 06:20:42;;;;;;;10.57;6.05;;;5.50;99.90;;;;;;5037415;28;20044;-66
2022/01/23 06:23:07;;;;;;;11.50;5.20;;;5.50;99.90;;;;;;5038872;28;20481;-66
2022/01/23 06:25:35;;;;;;;12.18;6.50;;;5.50;99.90;;;;;;5039578;28;20063;-66
2022/01/23 06:28:05;;;;;;;12.88;6.70;;;5.40;99.90;;;;;;5041562;28;20063;-66
2022/01/23 06:30:32;;;;;;;11.63;5.50;;;5.50;99.90;;;;;;5041764;28;20267;-66
2022/01/23 06:32:58;;;;;;;9.73;5.70;;;5.50;99.90;;;;;;5036376;28;20037;-66
2022/01/23 06:35:24;;;;;;;11.45;6.30;;;5.50;99.90;;;;;;5039625;28;20156;-66
2022/01/23 06:37:49;;;;;;;11.45;6.25;;;5.50;99.90;;;;;;5041043;28;20045;-66
2022/01/23 06:40:15;;;;;;;12.30;6.97;;;5.50;99.90;;;;;;5038301;28;20045;-66
2022/01/23 06:42:41;;;;;;;15.00;6.32;;;5.50;99.90;;;;;;5039231;28;20095;-66
2022/01/23 06:45:08;;;;;;;12.38;6.28;;;5.50;99.90;;;;;;5040059;28;20030;-66
2022/01/23 06:47:33;;;;;;;13.70;6.18;;;5.50;99.90;;;;;;5037952;28;20095;-66
2022/01/23 06:49:59;;;;;;;11.45;5.75;;;5.50;99.90;;;;;;5039314;28;20057;-66
2022/01/23 06:52:25;;;;;;;9.68;5.97;;;5.50;99.90;;;;;;5040161;28;20051;-66
2022/01/23 06:54:51;;;;;;;10.80;6.25;;;5.50;99.90;;;;;;5038545;28;20032;-66
2022/01/23 06:57:17;;;;;;;12.63;6.13;;;5.50;99.90;;;;;;5034847;28;20458;-66
2022/01/23 06:59:43;;;;;;;13.85;6.65;;;5.50;99.90;;;;;;5040034;28;20044;-66
2022/01/23 07:02:09;;;;;;;14.63;6.40;;;5.50;99.90;;;;;;5041129;28;20441;-66
2022/01/23 07:04:35;;;;;;;12.68;6.05;;;5.60;99.90;;;;;;5039532;28;21055;-66
2022/01/23 07:07:01;;;;;;;10.93;6.68;;;5.50;99.90;;;;;;5044976;28;20037;-67
2022/01/23 07:09:27;;;;;;;14.25;7.55;;;5.50;99.90;;;;;;5034878;28;20077;-65
2022/01/23 07:11:53;;;;;;;15.32;6.88;;;5.50;99.90;;;;;;5056729;28;20796;-66
2022/01/23 07:14:18;;;;;;;13.23;6.30;;;5.50;99.90;;;;;;5039541;28;20033;-66
2022/01/23 07:16:44;;;;;;;12.57;6.50;;;5.50;99.90;;;;;;5037696;28;20068;-66
2022/01/23 07:19:10;;;;;;;11.63;6.38;;;5.50;99.90;;;;;;5041653;28;20065;-66
2022/01/23 07:21:36;;;;;;;12.32;6.45;;;5.50;99.90;;;;;;5037270;28;20090;-66
2022/01/23 07:24:02;;;;;;;14.43;6.63;;;5.50;99.90;;;;;;5036233;28;20116;-66
2022/01/23 07:26:28;;;;;;;17.38;6.55;;;5.50;99.90;;;;;;5035386;28;20512;-66
2022/01/23 07:28:57;;;;;;;12.57;6.93;;;5.50;99.90;;;;;;5036015;28;20432;-66
2022/01/23 07:34:09;;;;;;;16.42;6.57;;;5.50;99.90;;;;;;5056057;28;20341;-66
2022/01/23 07:36:36;;;;;;;16.15;7.57;;;5.50;99.90;;;;;;5033826;28;20039;-66
2022/01/23 07:39:04;;;;;;;14.88;7.03;;;5.50;99.90;;;;;;5036108;28;20055;-66
2022/01/23 07:41:30;;;;;;;15.07;7.55;;;5.50;99.90;;;;;;5037156;28;20120;-66
2022/01/23 07:43:58;;;;;;;16.40;8.23;;;5.50;99.90;;;;;;5037412;28;20045;-66
2022/01/23 07:46:24;;;;;;;20.08;8.70;;;5.50;99.90;;;;;;5037422;28;20154;-66
2022/01/23 07:48:50;;;;;;;11.32;7.60;;;5.50;99.90;;;;;;5033985;28;20072;-66
2022/01/23 07:51:16;;;;;;;13.85;8.68;;;5.50;99.90;;;;;;5040752;28;20173;-66
2022/01/23 07:53:41;;;;;;;14.32;7.93;;;5.50;99.90;;;;;;5037902;28;20045;-66
2022/01/23 07:56:07;;;;;;;16.08;7.47;;;5.50;99.90;;;;;;5038505;28;20033;-66
2022/01/23 07:58:33;;;;;;;14.13;7.47;;;5.50;99.90;;;;;;5040060;28;20140;-66
2022/01/23 08:00:59;;;;;;;11.10;6.32;;;5.50;99.90;;;;;;5037001;28;20045;-66
2022/01/23 08:03:25;;;;;;;12.63;6.63;;;5.60;99.90;;;;;;5042145;28;20067;-66
2022/01/23 08:05:51;;;;;;;13.85;6.80;;;5.60;99.90;;;;;;5039711;28;20443;-65
2022/01/23 08:08:16;;;;;;;11.52;6.75;;;5.60;99.90;;;;;;5036061;28;20055;-65
2022/01/23 08:10:42;;;;;;;11.65;6.45;;;5.50;99.90;;;;;;5042528;28;20057;-65
2022/01/23 08:13:08;;;;;;;13.00;6.85;;;5.60;99.90;;;;;;5041072;28;20485;-66
2022/01/23 08:15:35;;;;;;;11.25;6.57;;;5.60;99.90;;;;;;5042154;28;20037;-66
2022/01/23 08:18:03;;;;;;;10.27;6.57;;;5.60;99.90;;;;;;5059423;28;20053;-66
2022/01/23 08:20:29;;;;;;;10.30;6.32;;;5.60;99.90;;;;;;5038628;28;20525;-66
2022/01/23 08:22:57;;;;;;;10.60;6.45;;;5.60;99.90;;;;;;5043869;28;20033;-67
2022/01/23 08:25:23;;;;;;;10.98;6.68;;;5.60;99.90;;;;;;5041245;28;20148;-67
2022/01/23 08:27:49;;;;;;;12.45;6.10;;;5.60;99.90;;;;;;5040310;28;20100;-66
2022/01/23 08:30:15;;;;;;;10.48;6.10;;;5.60;99.90;;;;;;5041744;28;20362;-65
2022/01/23 08:32:41;;;;;;;9.57;6.35;;;5.70;99.90;;;;;;5043501;28;20044;-65
2022/01/23 08:35:08;;;;;;;11.63;7.05;;;5.60;99.90;;;;;;5043888;28;20112;-66
2022/01/23 08:37:34;;;;;;;13.95;6.55;;;5.70;99.90;;;;;;5040770;28;20171;-66
2022/01/23 08:40:00;;;;;;;13.32;6.95;;;5.70;99.90;;;;;;5037834;28;20568;-66
2022/01/23 08:42:26;;;;;;;11.02;6.25;;;5.70;99.90;;;;;;5039603;28;20049;-66
2022/01/23 08:44:52;;;;;;;11.95;6.70;;;5.70;99.90;;;;;;5038504;28;20047;-66
2022/01/23 08:47:18;;;;;;;13.57;6.75;;;5.70;99.90;;;;;;5041949;28;20055;-66
2022/01/23 08:49:47;;;;;;;15.10;6.80;;;5.80;99.90;;;;;;5042219;28;20040;-66
2022/01/23 08:52:19;;;;;;;12.30;6.47;;;5.80;99.90;;;;;;5041858;28;20345;-66
2022/01/23 08:54:46;;;;;;;10.93;6.03;;;5.80;99.90;;;;;;5041125;28;20059;-66
2022/01/23 08:57:12;;;;;;;14.05;6.57;;;5.80;99.90;;;;;;5038940;28;20033;-66
2022/01/23 08:59:39;;;;;;;13.77;6.03;;;5.90;99.90;;;;;;5039607;28;20044;-66
2022/01/23 09:02:04;;;;;;;9.75;5.70;;;5.90;99.90;;;;;;5038783;28;20041;-66
2022/01/23 09:04:30;;;;;;;9.85;5.65;;;5.90;99.90;;;;;;5038704;28;20036;-66
2022/01/23 09:06:56;;;;;;;13.32;6.25;;;6.00;99.90;;;;;;5041651;28;20053;-66
2022/01/23 09:09:23;;;;;;;10.35;5.22;;;6.00;99.90;;;;;;5042692;28;20060;-66
2022/01/23 09:12:00;;;;;;;7.53;4.95;;;6.00;99.90;;;;;;5040496;28;20049;-66
2022/01/23 09:14:27;;;;;;;9.63;4.68;;;6.00;99.90;;;;;;5043656;28;20113;-66
2022/01/23 09:16:54;;;;;;;10.18;4.47;;;6.10;99.90;;;;;;5039289;28;20484;-66
2022/01/23 09:19:22;;;;;;;5.68;3.97;;;6.10;99.90;;;;;;5040531;28;20041;-66
2022/01/23 09:21:49;;;;;;;9.15;4.45;;;6.20;99.90;;;;;;5037867;28;20037;-66
2022/01/23 09:24:17;;;;;;;7.82;4.75;;;6.20;99.90;;;;;;5039413;28;20045;-66
2022/01/23 09:26:45;;;;;;;6.93;4.80;;;6.30;99.90;;;;;;5045344;28;20075;-66
2022/01/23 09:29:15;;;;;;;9.85;5.28;;;6.20;99.90;;;;;;5036803;28;20185;-66
2022/01/23 09:31:48;;;;;;;7.82;5.10;;;6.30;99.90;;;;;;5042820;28;20049;-66
2022/01/23 09:34:20;;;;;;;8.43;5.38;;;6.30;99.90;;;;;;5044397;28;20052;-66
2022/01/23 09:36:47;;;;;;;11.25;5.95;;;6.40;99.90;;;;;;5040265;28;20041;-66
2022/01/23 09:39:15;;;;;;;12.13;6.50;;;6.40;99.90;;;;;;5039941;28;20460;-66
2022/01/23 09:41:46;;;;;;;10.88;6.85;;;6.50;99.90;;;;;;5039730;28;20049;-66
2022/01/23 09:44:15;;;;;;;12.25;7.28;;;6.50;99.90;;;;;;5036826;28;20589;-66
2022/01/23 09:46:43;;;;;;;12.75;7.72;;;6.60;99.90;;;;;;5041978;28;20489;-66
2022/01/23 09:49:12;;;;;;;15.90;9.18;;;6.60;99.90;;;;;;5039288;28;20041;-66
2022/01/23 09:51:41;;;;;;;13.63;9.77;;;6.60;99.90;;;;;;5045101;28;20090;-66
2022/01/23 09:54:09;;;;;;;13.45;8.32;;;6.70;99.90;;;;;;5031809;28;20120;-66
2022/01/23 09:56:35;;;;;;;11.45;7.32;;;6.70;99.90;;;;;;5040400;28;20116;-66
2022/01/23 09:59:01;;;;;;;13.80;8.02;;;6.80;99.90;;;;;;5043389;28;20142;-67
2022/01/23 10:01:27;;;;;;;10.40;6.85;;;6.80;99.90;;;;;;5046131;28;20091;-66
2022/01/23 10:03:53;;;;;;;10.43;7.60;;;6.90;99.90;;;;;;5039813;28;20125;-66
2022/01/23 10:06:19;;;;;;;13.43;8.10;;;6.90;99.90;;;;;;5042317;28;20497;-66
2022/01/23 10:08:46;;;;;;;13.00;7.70;;;7.00;99.90;;;;;;5042321;28;20037;-66
2022/01/23 10:11:13;;;;;;;10.57;6.32;;;7.00;99.90;;;;;;5056845;28;20038;-66
2022/01/23 10:13:41;;;;;;;12.73;7.47;;;7.00;99.90;;;;;;5038630;28;20033;-66
2022/01/23 10:16:07;;;;;;;12.10;6.93;;;7.00;99.90;;;;;;5036695;28;20520;-66
2022/01/23 10:18:34;;;;;;;11.40;7.07;;;7.10;99.90;;;;;;5042164;28;20094;-66
2022/01/23 10:21:00;;;;;;;9.27;6.95;;;7.10;99.90;;;;;;5037845;28;20080;-66
2022/01/23 10:23:26;;;;;;;10.65;7.72;;;7.10;99.90;;;;;;5044655;28;20033;-66
2022/01/23 10:25:53;;;;;;;10.75;7.32;;;7.10;99.90;;;;;;5041699;28;20041;-66
2022/01/23 10:28:22;;;;;;;10.00;6.57;;;7.20;99.90;;;;;;5036228;28;20041;-66
2022/01/23 10:30:51;;;;;;;10.43;6.32;;;7.20;99.90;;;;;;5043171;28;20463;-66
2022/01/23 10:33:23;;;;;;;9.95;6.25;;;7.30;99.90;;;;;;5037399;28;20524;-66
2022/01/23 10:36:05;;;;;;;9.93;7.45;;;7.30;99.90;;;;;;5042934;28;20124;-66
2022/01/23 10:38:49;;;;;;;10.52;7.10;;;7.30;99.90;;;;;;5041494;28;20127;-66
2022/01/23 10:50:00;;;;;;;6.90;4.38;;;7.60;99.90;;;;;;5041678;28;20044;-66
2022/01/23 10:52:37;;;;;;;7.00;4.13;;;7.60;99.90;;;;;;5038916;28;20044;-66
2022/01/23 10:55:12;;;;;;;5.18;3.60;;;7.70;99.90;;;;;;5059970;28;20165;-66
2022/01/23 10:57:43;;;;;;;5.28;3.58;;;7.60;99.90;;;;;;5040692;28;20045;-67
2022/01/23 11:00:23;;;;;;;5.55;3.92;;;7.60;99.90;;;;;;5052866;28;20057;-66
2022/01/23 11:02:49;;;;;;;6.35;4.30;;;7.60;99.90;;;;;;5038053;28;20103;-66
2022/01/23 11:05:19;;;;;;;7.82;5.50;;;7.50;99.90;;;;;;5041764;28;20056;-67
2022/01/23 11:07:49;;;;;;;6.70;5.30;;;7.50;99.90;;;;;;5040030;28;20091;-67
2022/01/23 11:10:22;;;;;;;6.60;5.10;;;7.60;99.90;;;;;;5039303;28;20099;-67
2022/01/23 11:18:18;;;;;;;5.47;4.10;;;7.50;99.90;;;;;;5037702;28;20047;-67
2022/01/23 11:20:49;;;;;;;6.90;4.38;;;7.50;99.90;;;;;;5036909;28;20045;-67
2022/01/23 11:23:22;;;;;;;7.68;5.03;;;7.50;99.90;;;;;;5040324;28;20045;-67
2022/01/23 11:25:56;;;;;;;6.70;4.68;;;7.50;99.90;;;;;;5042262;28;20052;-66
2022/01/23 11:28:28;;;;;;;;;;;7.50;99.90;;;;;;5040281;28;20405;-67
2022/01/23 11:30:54;;;;;;;5.78;4.50;;;7.50;99.90;;;;;;5038564;28;19921;-67
2022/01/23 11:33:19;;;;;;;5.95;4.38;;;7.50;99.90;;;;;;5055042;28;20697;-67
2022/01/23 11:35:46;;;;;;;6.53;4.85;;;7.50;99.90;;;;;;5041135;28;20056;-67
2022/01/23 11:38:17;;;;;;;7.85;4.45;;;7.60;99.90;;;;;;5036142;28;20550;-67
2022/01/23 11:54:41;;;;;;;1.10;0.50;;;7.60;99.90;;;;;;5038488;28;20523;-67
2022/01/23 11:57:41;;;;;;;1.08;0.40;;;7.60;99.90;;;;;;5038577;28;20056;-67
2022/01/23 12:00:26;;;;;;;1.73;0.30;;;7.60;99.90;;;;;;5022487;28;20544;-67
2022/01/23 12:03:17;;;;;;;0.45;0.17;;;7.60;99.90;;;;;;5038575;28;20025;-67
2022/01/23 12:05:48;;;;;;;0.40;0.10;;;7.70;99.90;;;;;;5039132;28;20088;-67
2022/01/23 12:08:16;;;;;;;0.45;0.20;;;7.60;99.90;;;;;;5052968;28;20057;-67
2022/01/23 12:11:35;;;;;;;0.30;0.10;;;7.60;99.90;;;;;;5039689;28;20120;-67
2022/01/23 12:17:00;;;;;;;1.20;0.10;;;7.70;99.90;;;;;;5042491;28;20160;-67
2022/01/23 12:20:02;;;;;;;0.75;0.20;;;7.70;99.90;;;;;;5039540;28;20048;-67
2022/01/23 12:22:39;;;;;;;0.38;0.10;;;7.70;99.90;;;;;;5029315;28;20447;-67
2022/01/23 12:25:18;;;;;;;0.88;0.10;;;7.70;99.90;;;;;;5036958;28;20127;-67
2022/01/23 12:27:44;;;;;;;0.25;0.08;;;7.70;99.90;;;;;;5036927;28;20556;-67
2022/01/23 12:30:14;;;;;;;0.68;0.13;;;7.70;99.90;;;;;;5036509;28;20045;-67
2022/01/23 12:32:40;;;;;;;1.42;0.30;;;7.60;99.90;;;;;;5037188;28;20448;-67
2022/01/23 12:35:07;;;;;;;1.45;0.47;;;7.70;99.90;;;;;;5038491;28;20049;-67
2022/01/23 12:37:55;;;;;;;1.50;0.38;;;7.70;99.90;;;;;;5039043;28;20520;-67
2022/01/23 12:40:34;;;;;;;0.80;0.40;;;7.70;99.90;;;;;;5036846;28;20138;-67
2022/01/23 12:43:15;;;;;;;1.60;0.70;;;7.70;99.90;;;;;;5038899;28;20060;-67
2022/01/23 12:46:02;;;;;;;2.08;0.90;;;7.70;99.90;;;;;;5041934;28;20070;-67
2022/01/23 12:48:36;;;;;;;1.35;0.80;;;7.60;99.90;;;;;;5040070;28;20098;-67
2022/01/23 12:51:05;;;;;;;1.17;0.70;;;7.60;99.90;;;;;;5038510;28;20041;-67
2022/01/23 12:53:57;;;;;;;1.27;0.70;;;7.60;99.90;;;;;;5039416;28;20037;-67
2022/01/23 12:56:29;;;;;;;1.55;0.95;;;7.50;99.90;;;;;;5041349;28;20059;-67
2022/01/23 12:59:06;;;;;;;1.42;0.82;;;7.50;99.90;;;;;;5047172;28;20040;-67
2022/01/23 13:01:33;;;;;;;2.38;1.00;;;7.50;99.90;;;;;;5040823;28;20040;-67
2022/01/23 13:04:03;;;;;;;1.67;1.20;;;7.50;99.90;;;;;;5042203;28;20314;-67
2022/01/23 13:06:47;;;;;;;1.63;0.90;;;7.50;99.90;;;;;;5055009;28;20118;-67
2022/01/23 13:09:16;;;;;;;1.30;0.80;;;7.40;99.90;;;;;;5040833;28;20084;-67
2022/01/23 13:12:12;;;;;;;1.08;0.50;;;7.40;99.90;;;;;;5042791;28;20124;-67
2022/01/23 13:14:47;;;;;;;1.73;0.60;;;7.30;99.90;;;;;;5045850;28;20091;-67
2022/01/23 13:31:09;;;;;;;2.10;1.52;;;7.30;99.90;;;;;;5041295;28;20126;-67
2022/01/23 13:33:38;;;;;;;2.42;1.67;;;7.40;99.90;;;;;;5039404;28;20048;-67
2022/01/23 13:36:09;;;;;;;3.35;1.63;;;7.40;99.90;;;;;;5040267;28;20026;-67
2022/01/23 13:38:36;;;;;;;2.47;1.30;;;7.40;99.90;;;;;;5034595;28;20073;-67
2022/01/23 13:41:22;;;;;;;1.92;1.17;;;7.40;99.90;;;;;;5039267;28;20060;-67
2022/01/23 13:50:35;;;;;;;1.40;1.00;;;7.40;99.90;;;;;;5045398;28;20409;-67
2022/01/23 13:52:38;;;;;;;4.78;0.80;;;7.50;99.90;;;;;;5037881;28;20569;-67
2022/01/23 13:58:35;;;;;;;0.93;0.70;;;7.50;99.90;;;;;;5033140;28;20106;-67
2022/01/23 14:00:42;;;;;;;0.93;0.60;;;7.50;99.90;;;;;;5040415;28;20037;-67
2022/01/23 14:03:09;;;;;;;1.38;0.40;;;7.50;99.90;;;;;;5041031;28;20070;-67
2022/01/23 14:05:35;;;;;;;2.17;0.63;;;7.40;99.90;;;;;;5040513;28;20119;-67
2022/01/23 14:08:03;;;;;;;2.63;0.40;;;7.40;99.90;;;;;;5032412;28;20048;-67
2022/01/23 14:10:38;;;;;;;2.15;0.80;;;7.40;99.90;;;;;;5042510;28;20186;-67
2022/01/23 14:13:07;;;;;;;2.28;0.60;;;7.50;99.90;;;;;;5041830;28;20616;-67
2022/01/23 14:15:33;;;;;;;1.15;0.50;;;7.50;99.90;;;;;;5037288;28;20051;-67
2022/01/23 14:18:04;;;;;;;1.52;0.50;;;7.40;99.90;;;;;;5038461;28;20033;-67
2022/01/23 14:20:43;;;;;;;1.27;0.40;;;7.40;99.90;;;;;;5041860;28;20432;-67
2022/01/23 14:23:14;;;;;;;1.95;0.55;;;7.40;99.90;;;;;;5035727;28;20071;-67
2022/01/23 14:26:00;;;;;;;1.90;0.45;;;7.30;99.90;;;;;;5042688;28;20048;-67
2022/01/23 14:28:35;;;;;;;4.13;0.30;;;7.40;99.90;;;;;;5034818;28;20493;-67
2022/01/23 14:31:15;;;;;;;2.60;0.50;;;7.30;99.90;;;;;;5026270;28;20431;-67
2022/01/23 14:33:41;;;;;;;1.73;0.30;;;7.30;99.90;;;;;;5037461;28;20052;-67
2022/01/23 14:36:25;;;;;;;1.40;0.55;;;7.30;99.90;;;;;;5039869;28;20560;-67
2022/01/23 14:38:58;;;;;;;1.45;0.25;;;7.30;99.90;;;;;;5035435;28;20033;-67
2022/01/23 14:41:25;;;;;;;1.38;0.40;;;7.20;99.90;;;;;;5045097;28;20049;-67
2022/01/23 14:43:51;;;;;;;10.05;1.80;;;7.10;99.90;;;;;;5043130;28;20391;-67
2022/01/23 14:46:17;;;;;;;0.98;0.30;;;7.20;99.90;;;;;;5037336;28;20432;-67
2022/01/23 14:48:49;;;;;;;1.35;0.38;;;7.20;99.90;;;;;;5037217;28;20041;-67
2022/01/23 14:51:22;;;;;;;1.27;0.45;;;7.20;99.90;;;;;;5038607;28;20291;-70
2022/01/23 14:53:49;;;;;;;0.68;0.30;;;7.20;99.90;;;;;;5033282;28;20108;-67
2022/01/23 14:56:15;;;;;;;1.33;0.50;;;7.10;99.90;;;;;;5041685;28;20048;-67
2022/01/23 14:58:42;;;;;;;2.63;0.70;;;7.10;99.90;;;;;;5038405;28;20168;-67
2022/01/23 15:01:11;;;;;;;1.05;0.57;;;7.10;99.90;;;;;;5051331;28;20493;-67
2022/01/23 15:03:38;;;;;;;1.25;0.60;;;7.10;99.90;;;;;;5032397;28;20339;-67
2022/01/23 15:06:04;;;;;;;1.00;0.50;;;7.10;99.90;;;;;;5042974;28;20037;-67
2022/01/23 15:08:30;;;;;;;1.45;0.60;;;7.00;99.90;;;;;;5037975;28;20119;-67
2022/01/23 15:10:59;;;;;;;2.17;0.88;;;7.00;99.90;;;;;;5037574;28;20546;-67
2022/01/23 15:13:27;;;;;;;1.75;0.60;;;7.00;99.90;;;;;;5043612;28;20136;-67
2022/01/23 15:15:54;;;;;;;1.85;0.93;;;7.00;99.90;;;;;;5037828;28;20116;-67
2022/01/23 15:18:20;;;;;;;3.28;0.80;;;7.00;99.90;;;;;;5044360;28;20543;-67
2022/01/23 15:20:47;;;;;;;3.65;0.98;;;6.90;99.90;;;;;;5035131;28;20567;-67
2022/01/23 15:23:14;;;;;;;1.80;1.00;;;6.90;99.90;;;;;;5042666;28;20029;-67
2022/01/23 15:25:42;;;;;;;2.17;0.90;;;6.90;99.90;;;;;;5044167;28;20099;-67
2022/01/23 15:28:08;;;;;;;2.63;0.80;;;6.90;99.90;;;;;;5041957;28;20041;-65
2022/01/23 15:30:36;;;;;;;1.42;1.10;;;6.90;99.90;;;;;;5035616;28;20064;-67
2022/01/23 15:33:06;;;;;;;2.08;1.15;;;6.90;99.90;;;;;;5037291;28;20047;-67
2022/01/23 15:35:33;;;;;;;2.17;1.10;;;6.80;99.90;;;;;;5045961;28;20182;-67
2022/01/23 15:37:59;;;;;;;3.03;1.38;;;6.80;99.90;;;;;;5034813;28;20135;-67
2022/01/23 15:40:26;;;;;;;2.10;1.15;;;6.80;99.90;;;;;;5039066;28;20079;-67
2022/01/23 15:42:53;;;;;;;2.75;1.20;;;6.80;99.90;;;;;;5036403;28;20045;-66
2022/01/23 15:45:21;;;;;;;2.90;1.90;;;6.80;99.90;;;;;;5034400;28;20048;-66
2022/01/23 15:47:47;;;;;;;3.13;1.73;;;6.80;99.90;;;;;;5034469;28;20481;-67
2022/01/23 15:50:15;;;;;;;3.47;1.77;;;6.70;99.90;;;;;;5033987;28;20474;-67
2022/01/23 15:52:41;;;;;;;2.47;1.70;;;6.80;99.90;;;;;;5054500;28;20102;-66
2022/01/23 15:55:09;;;;;;;2.78;1.30;;;6.70;99.90;;;;;;5039850;28;20085;-66
2022/01/23 15:57:35;;;;;;;4.30;1.50;;;6.70;99.90;;;;;;5053089;28;20503;-66
2022/01/23 16:00:01;;;;;;;3.13;1.50;;;6.70;99.90;;;;;;5046346;28;20112;-66
2022/01/23 16:02:27;;;;;;;3.47;1.40;;;6.60;99.90;;;;;;5039749;28;20497;-67
2022/01/23 16:04:53;;;;;;;2.58;1.40;;;6.60;99.90;;;;;;5037328;28;20109;-67
2022/01/23 16:07:19;;;;;;;3.33;1.75;;;6.60;99.90;;;;;;5034939;28;20457;-67
2022/01/23 16:09:45;;;;;;;6.68;2.92;;;6.60;99.90;;;;;;5038600;28;20124;-66
2022/01/23 16:12:13;;;;;;;6.68;3.17;;;6.60;99.90;;;;;;5039309;28;20556;-67